sensor_id;sensor_type;location;lat;lon;timestamp;P1;P2;P0
30342;PMS5003;17145;49.902;8.680;2023-05-02T00:00:28;7;7;
30342;PMS5003;17145;49.902;8.680;2023-05-02T00:02:56;9;8;
30342;PMS5003;17145;49.902;8.680;2023-05-02T00:05:23;7;7;
30342;PMS5003;17145;49.902;8.680;2023-05-02T00:07:52;8;7;
30342;PMS5003;17145;49.902;8.680;2023-05-02T00:10:19;9;8;
30342;PMS5003;17145;49.902;8.680;2023-05-02T00:12:46;12;12;
30342;PMS5003;17145;49.902;8.680;2023-05-02T00:15:14;8;8;
30342;PMS5003;17145;49.902;8.680;2023-05-02T00:17:41;9;8;
30342;PMS5003;17145;49.902;8.680;2023-05-02T00:20:09;9;7;
30342;PMS5003;17145;49.902;8.680;2023-05-02T00:22:38;8;8;
30342;PMS5003;17145;49.902;8.680;2023-05-02T00:25:06;6;6;
30342;PMS5003;17145;49.902;8.680;2023-05-02T00:27:33;8;8;
30342;PMS5003;17145;49.902;8.680;2023-05-02T00:30:01;7;7;
30342;PMS5003;17145;49.902;8.680;2023-05-02T00:32:28;7;6;
30342;PMS5003;17145;49.902;8.680;2023-05-02T00:34:56;7;7;
30342;PMS5003;17145;49.902;8.680;2023-05-02T00:37:25;6;6;
30342;PMS5003;17145;49.902;8.680;2023-05-02T00:39:52;9;9;
30342;PMS5003;17145;49.902;8.680;2023-05-02T00:42:20;8;7;
30342;PMS5003;17145;49.902;8.680;2023-05-02T00:44:47;9;7;
30342;PMS5003;17145;49.902;8.680;2023-05-02T00:47:14;7;7;
30342;PMS5003;17145;49.902;8.680;2023-05-02T00:49:42;10;9;
30342;PMS5003;17145;49.902;8.680;2023-05-02T00:52:09;6;6;
30342;PMS5003;17145;49.902;8.680;2023-05-02T00:54:37;8;8;
30342;PMS5003;17145;49.902;8.680;2023-05-02T00:57:04;9;8;
30342;PMS5003;17145;49.902;8.680;2023-05-02T00:59:32;7;7;
30342;PMS5003;17145;49.902;8.680;2023-05-02T01:02:04;8;8;
30342;PMS5003;17145;49.902;8.680;2023-05-02T01:04:42;11;9;
30342;PMS5003;17145;49.902;8.680;2023-05-02T01:07:21;13;13;
30342;PMS5003;17145;49.902;8.680;2023-05-02T01:10:00;12;11;
30342;PMS5003;17145;49.902;8.680;2023-05-02T01:12:36;8;7;
30342;PMS5003;17145;49.902;8.680;2023-05-02T01:15:09;7;7;
30342;PMS5003;17145;49.902;8.680;2023-05-02T01:17:42;7;7;
30342;PMS5003;17145;49.902;8.680;2023-05-02T01:20:12;8;8;
30342;PMS5003;17145;49.902;8.680;2023-05-02T01:22:45;8;8;
30342;PMS5003;17145;49.902;8.680;2023-05-02T01:25:17;8;8;
30342;PMS5003;17145;49.902;8.680;2023-05-02T01:27:56;9;8;
30342;PMS5003;17145;49.902;8.680;2023-05-02T01:30:33;7;7;
30342;PMS5003;17145;49.902;8.680;2023-05-02T01:33:04;8;7;
30342;PMS5003;17145;49.902;8.680;2023-05-02T01:35:33;9;8;
30342;PMS5003;17145;49.902;8.680;2023-05-02T01:38:03;9;9;
30342;PMS5003;17145;49.902;8.680;2023-05-02T01:40:31;12;11;
30342;PMS5003;17145;49.902;8.680;2023-05-02T01:43:00;8;7;
30342;PMS5003;17145;49.902;8.680;2023-05-02T01:45:31;7;7;
30342;PMS5003;17145;49.902;8.680;2023-05-02T01:48:04;8;8;
30342;PMS5003;17145;49.902;8.680;2023-05-02T01:50:33;7;7;
30342;PMS5003;17145;49.902;8.680;2023-05-02T01:53:03;9;8;
30342;PMS5003;17145;49.902;8.680;2023-05-02T01:55:33;6;6;
30342;PMS5003;17145;49.902;8.680;2023-05-02T01:58:03;10;9;
30342;PMS5003;17145;49.902;8.680;2023-05-02T02:00:33;10;10;
30342;PMS5003;17145;49.902;8.680;2023-05-02T02:03:02;9;9;
30342;PMS5003;17145;49.902;8.680;2023-05-02T02:05:32;9;9;
30342;PMS5003;17145;49.902;8.680;2023-05-02T02:08:03;10;10;
30342;PMS5003;17145;49.902;8.680;2023-05-02T02:10:34;9;9;
30342;PMS5003;17145;49.902;8.680;2023-05-02T02:13:06;8;7;
30342;PMS5003;17145;49.902;8.680;2023-05-02T02:15:42;9;9;
30342;PMS5003;17145;49.902;8.680;2023-05-02T02:18:13;7;7;
30342;PMS5003;17145;49.902;8.680;2023-05-02T02:20:47;9;8;
30342;PMS5003;17145;49.902;8.680;2023-05-02T02:23:16;9;8;
30342;PMS5003;17145;49.902;8.680;2023-05-02T02:25:47;8;8;
30342;PMS5003;17145;49.902;8.680;2023-05-02T02:28:18;7;7;
30342;PMS5003;17145;49.902;8.680;2023-05-02T02:30:45;7;6;
30342;PMS5003;17145;49.902;8.680;2023-05-02T02:33:13;6;6;
30342;PMS5003;17145;49.902;8.680;2023-05-02T02:35:41;8;7;
30342;PMS5003;17145;49.902;8.680;2023-05-02T02:38:13;8;8;
30342;PMS5003;17145;49.902;8.680;2023-05-02T02:40:52;9;8;
30342;PMS5003;17145;49.902;8.680;2023-05-02T02:43:25;6;6;
30342;PMS5003;17145;49.902;8.680;2023-05-02T02:46:01;9;8;
30342;PMS5003;17145;49.902;8.680;2023-05-02T02:48:42;5;5;
30342;PMS5003;17145;49.902;8.680;2023-05-02T02:51:19;6;6;
30342;PMS5003;17145;49.902;8.680;2023-05-02T02:53:56;5;5;
30342;PMS5003;17145;49.902;8.680;2023-05-02T02:56:27;6;5;
30342;PMS5003;17145;49.902;8.680;2023-05-02T02:59:02;5;5;
30342;PMS5003;17145;49.902;8.680;2023-05-02T03:01:35;6;6;
30342;PMS5003;17145;49.902;8.680;2023-05-02T03:04:07;7;7;
30342;PMS5003;17145;49.902;8.680;2023-05-02T03:06:37;7;7;
30342;PMS5003;17145;49.902;8.680;2023-05-02T03:09:05;7;7;
30342;PMS5003;17145;49.902;8.680;2023-05-02T03:11:37;7;6;
30342;PMS5003;17145;49.902;8.680;2023-05-02T03:14:05;7;6;
30342;PMS5003;17145;49.902;8.680;2023-05-02T03:16:33;6;6;
30342;PMS5003;17145;49.902;8.680;2023-05-02T03:19:02;7;6;
30342;PMS5003;17145;49.902;8.680;2023-05-02T03:21:30;6;6;
30342;PMS5003;17145;49.902;8.680;2023-05-02T03:23:58;5;5;
30342;PMS5003;17145;49.902;8.680;2023-05-02T03:26:26;35;32;
30342;PMS5003;17145;49.902;8.680;2023-05-02T03:28:54;77;69;
30342;PMS5003;17145;49.902;8.680;2023-05-02T03:31:22;20;20;
30342;PMS5003;17145;49.902;8.680;2023-05-02T03:33:49;11;11;
30342;PMS5003;17145;49.902;8.680;2023-05-02T03:36:16;16;16;
30342;PMS5003;17145;49.902;8.680;2023-05-02T03:38:43;42;38;
30342;PMS5003;17145;49.902;8.680;2023-05-02T03:41:11;22;20;
30342;PMS5003;17145;49.902;8.680;2023-05-02T03:43:38;522;497;
30342;PMS5003;17145;49.902;8.680;2023-05-02T03:46:06;359;351;
30342;PMS5003;17145;49.902;8.680;2023-05-02T03:48:34;291;273;
30342;PMS5003;17145;49.902;8.680;2023-05-02T03:51:03;68;57;
30342;PMS5003;17145;49.902;8.680;2023-05-02T03:53:31;53;48;
30342;PMS5003;17145;49.902;8.680;2023-05-02T03:55:59;374;368;
30342;PMS5003;17145;49.902;8.680;2023-05-02T03:58:27;110;98;
30342;PMS5003;17145;49.902;8.680;2023-05-02T04:00:54;186;168;
30342;PMS5003;17145;49.902;8.680;2023-05-02T04:03:21;108;102;
30342;PMS5003;17145;49.902;8.680;2023-05-02T04:05:49;194;181;
30342;PMS5003;17145;49.902;8.680;2023-05-02T04:08:16;108;100;
30342;PMS5003;17145;49.902;8.680;2023-05-02T04:10:44;11;10;
30342;PMS5003;17145;49.902;8.680;2023-05-02T04:13:11;9;9;
30342;PMS5003;17145;49.902;8.680;2023-05-02T04:15:39;8;7;
30342;PMS5003;17145;49.902;8.680;2023-05-02T04:18:06;9;8;
30342;PMS5003;17145;49.902;8.680;2023-05-02T04:20:34;6;6;
30342;PMS5003;17145;49.902;8.680;2023-05-02T04:23:01;11;7;
30342;PMS5003;17145;49.902;8.680;2023-05-02T04:25:29;7;7;
30342;PMS5003;17145;49.902;8.680;2023-05-02T04:27:56;8;8;
30342;PMS5003;17145;49.902;8.680;2023-05-02T04:30:23;11;11;
30342;PMS5003;17145;49.902;8.680;2023-05-02T04:32:51;9;9;
30342;PMS5003;17145;49.902;8.680;2023-05-02T04:35:18;15;15;
30342;PMS5003;17145;49.902;8.680;2023-05-02T04:37:46;11;11;
30342;PMS5003;17145;49.902;8.680;2023-05-02T04:40:13;8;6;
30342;PMS5003;17145;49.902;8.680;2023-05-02T04:42:41;11;11;
30342;PMS5003;17145;49.902;8.680;2023-05-02T04:45:08;7;7;
30342;PMS5003;17145;49.902;8.680;2023-05-02T04:47:36;13;12;
30342;PMS5003;17145;49.902;8.680;2023-05-02T04:50:04;18;18;
30342;PMS5003;17145;49.902;8.680;2023-05-02T04:52:32;9;9;
30342;PMS5003;17145;49.902;8.680;2023-05-02T04:54:59;9;8;
30342;PMS5003;17145;49.902;8.680;2023-05-02T04:57:26;8;7;
30342;PMS5003;17145;49.902;8.680;2023-05-02T04:59:54;8;8;
30342;PMS5003;17145;49.902;8.680;2023-05-02T05:02:21;7;7;
30342;PMS5003;17145;49.902;8.680;2023-05-02T05:04:49;9;8;
30342;PMS5003;17145;49.902;8.680;2023-05-02T05:07:16;6;6;
30342;PMS5003;17145;49.902;8.680;2023-05-02T05:09:43;6;6;
30342;PMS5003;17145;49.902;8.680;2023-05-02T05:12:11;5;5;
30342;PMS5003;17145;49.902;8.680;2023-05-02T05:14:38;9;8;
30342;PMS5003;17145;49.902;8.680;2023-05-02T05:17:05;7;7;
30342;PMS5003;17145;49.902;8.680;2023-05-02T05:19:33;4;4;
30342;PMS5003;17145;49.902;8.680;2023-05-02T05:22:00;7;6;
30342;PMS5003;17145;49.902;8.680;2023-05-02T05:24:28;6;6;
30342;PMS5003;17145;49.902;8.680;2023-05-02T05:26:55;6;6;
30342;PMS5003;17145;49.902;8.680;2023-05-02T05:29:23;6;6;
30342;PMS5003;17145;49.902;8.680;2023-05-02T05:31:50;7;7;
30342;PMS5003;17145;49.902;8.680;2023-05-02T05:34:17;9;9;
30342;PMS5003;17145;49.902;8.680;2023-05-02T05:36:45;8;8;
30342;PMS5003;17145;49.902;8.680;2023-05-02T05:39:12;7;7;
30342;PMS5003;17145;49.902;8.680;2023-05-02T05:41:39;14;14;
30342;PMS5003;17145;49.902;8.680;2023-05-02T05:44:07;11;11;
30342;PMS5003;17145;49.902;8.680;2023-05-02T05:46:34;14;14;
30342;PMS5003;17145;49.902;8.680;2023-05-02T05:49:01;7;7;
30342;PMS5003;17145;49.902;8.680;2023-05-02T05:51:29;6;6;
30342;PMS5003;17145;49.902;8.680;2023-05-02T05:53:57;5;5;
30342;PMS5003;17145;49.902;8.680;2023-05-02T05:56:24;6;6;
30342;PMS5003;17145;49.902;8.680;2023-05-02T05:58:51;7;6;
30342;PMS5003;17145;49.902;8.680;2023-05-02T06:01:19;6;6;
30342;PMS5003;17145;49.902;8.680;2023-05-02T06:03:47;6;6;
30342;PMS5003;17145;49.902;8.680;2023-05-02T06:06:14;7;6;
30342;PMS5003;17145;49.902;8.680;2023-05-02T06:08:42;8;8;
30342;PMS5003;17145;49.902;8.680;2023-05-02T06:11:09;5;5;
30342;PMS5003;17145;49.902;8.680;2023-05-02T06:13:37;7;6;
30342;PMS5003;17145;49.902;8.680;2023-05-02T06:16:04;6;6;
30342;PMS5003;17145;49.902;8.680;2023-05-02T06:18:32;6;6;
30342;PMS5003;17145;49.902;8.680;2023-05-02T06:21:02;9;8;
30342;PMS5003;17145;49.902;8.680;2023-05-02T06:23:30;9;8;
30342;PMS5003;17145;49.902;8.680;2023-05-02T06:25:58;12;10;
30342;PMS5003;17145;49.902;8.680;2023-05-02T06:28:25;9;9;
30342;PMS5003;17145;49.902;8.680;2023-05-02T06:30:57;9;9;
30342;PMS5003;17145;49.902;8.680;2023-05-02T06:33:25;11;11;
30342;PMS5003;17145;49.902;8.680;2023-05-02T06:35:52;15;13;
30342;PMS5003;17145;49.902;8.680;2023-05-02T06:38:20;14;13;
30342;PMS5003;17145;49.902;8.680;2023-05-02T06:40:47;14;13;
30342;PMS5003;17145;49.902;8.680;2023-05-02T06:43:16;15;14;
30342;PMS5003;17145;49.902;8.680;2023-05-02T06:45:44;16;13;
30342;PMS5003;17145;49.902;8.680;2023-05-02T06:48:11;13;13;
30342;PMS5003;17145;49.902;8.680;2023-05-02T06:50:38;15;15;
30342;PMS5003;17145;49.902;8.680;2023-05-02T06:53:06;13;13;
30342;PMS5003;17145;49.902;8.680;2023-05-02T06:55:33;15;15;
30342;PMS5003;17145;49.902;8.680;2023-05-02T06:58:01;12;12;
30342;PMS5003;17145;49.902;8.680;2023-05-02T07:00:28;14;14;
30342;PMS5003;17145;49.902;8.680;2023-05-02T07:02:56;13;13;
30342;PMS5003;17145;49.902;8.680;2023-05-02T07:05:23;14;14;
30342;PMS5003;17145;49.902;8.680;2023-05-02T07:07:50;15;15;
30342;PMS5003;17145;49.902;8.680;2023-05-02T07:10:17;13;12;
30342;PMS5003;17145;49.902;8.680;2023-05-02T07:12:45;12;12;
30342;PMS5003;17145;49.902;8.680;2023-05-02T07:15:12;14;14;
30342;PMS5003;17145;49.902;8.680;2023-05-02T07:17:39;14;14;
30342;PMS5003;17145;49.902;8.680;2023-05-02T07:20:07;13;12;
30342;PMS5003;17145;49.902;8.680;2023-05-02T07:22:36;13;13;
30342;PMS5003;17145;49.902;8.680;2023-05-02T07:25:03;16;14;
30342;PMS5003;17145;49.902;8.680;2023-05-02T07:27:31;15;14;
30342;PMS5003;17145;49.902;8.680;2023-05-02T07:29:59;15;15;
30342;PMS5003;17145;49.902;8.680;2023-05-02T07:32:26;17;15;
30342;PMS5003;17145;49.902;8.680;2023-05-02T07:34:53;16;16;
30342;PMS5003;17145;49.902;8.680;2023-05-02T07:37:21;16;14;
30342;PMS5003;17145;49.902;8.680;2023-05-02T07:39:48;22;17;
30342;PMS5003;17145;49.902;8.680;2023-05-02T07:42:16;17;17;
30342;PMS5003;17145;49.902;8.680;2023-05-02T07:44:43;16;15;
30342;PMS5003;17145;49.902;8.680;2023-05-02T07:47:11;16;14;
30342;PMS5003;17145;49.902;8.680;2023-05-02T07:49:38;17;16;
30342;PMS5003;17145;49.902;8.680;2023-05-02T07:52:05;16;15;
30342;PMS5003;17145;49.902;8.680;2023-05-02T07:54:33;17;15;
30342;PMS5003;17145;49.902;8.680;2023-05-02T07:57:00;17;16;
30342;PMS5003;17145;49.902;8.680;2023-05-02T07:59:28;18;18;
30342;PMS5003;17145;49.902;8.680;2023-05-02T08:01:56;16;15;
30342;PMS5003;17145;49.902;8.680;2023-05-02T08:04:24;19;17;
30342;PMS5003;17145;49.902;8.680;2023-05-02T08:06:51;22;21;
30342;PMS5003;17145;49.902;8.680;2023-05-02T08:09:20;22;20;
30342;PMS5003;17145;49.902;8.680;2023-05-02T08:11:48;19;17;
30342;PMS5003;17145;49.902;8.680;2023-05-02T08:14:15;19;19;
30342;PMS5003;17145;49.902;8.680;2023-05-02T08:16:42;21;21;
30342;PMS5003;17145;49.902;8.680;2023-05-02T08:19:10;20;19;
30342;PMS5003;17145;49.902;8.680;2023-05-02T08:21:37;17;16;
30342;PMS5003;17145;49.902;8.680;2023-05-02T08:24:05;20;19;
30342;PMS5003;17145;49.902;8.680;2023-05-02T08:26:32;19;19;
30342;PMS5003;17145;49.902;8.680;2023-05-02T08:28:59;17;16;
30342;PMS5003;17145;49.902;8.680;2023-05-02T08:31:27;23;20;
30342;PMS5003;17145;49.902;8.680;2023-05-02T08:33:54;20;20;
30342;PMS5003;17145;49.902;8.680;2023-05-02T08:36:21;22;21;
30342;PMS5003;17145;49.902;8.680;2023-05-02T08:38:49;22;21;
30342;PMS5003;17145;49.902;8.680;2023-05-02T08:41:17;19;17;
30342;PMS5003;17145;49.902;8.680;2023-05-02T08:43:45;22;20;
30342;PMS5003;17145;49.902;8.680;2023-05-02T08:46:13;20;17;
30342;PMS5003;17145;49.902;8.680;2023-05-02T08:48:42;20;20;
30342;PMS5003;17145;49.902;8.680;2023-05-02T08:51:12;21;19;
30342;PMS5003;17145;49.902;8.680;2023-05-02T08:53:41;21;21;
30342;PMS5003;17145;49.902;8.680;2023-05-02T08:56:09;19;19;
30342;PMS5003;17145;49.902;8.680;2023-05-02T08:58:38;22;22;
30342;PMS5003;17145;49.902;8.680;2023-05-02T09:01:08;24;22;
30342;PMS5003;17145;49.902;8.680;2023-05-02T09:03:38;24;22;
30342;PMS5003;17145;49.902;8.680;2023-05-02T09:06:09;28;27;
30342;PMS5003;17145;49.902;8.680;2023-05-02T09:08:38;24;23;
30342;PMS5003;17145;49.902;8.680;2023-05-02T09:11:08;23;23;
30342;PMS5003;17145;49.902;8.680;2023-05-02T09:13:37;30;24;
30342;PMS5003;17145;49.902;8.680;2023-05-02T09:16:06;24;23;
30342;PMS5003;17145;49.902;8.680;2023-05-02T09:18:35;26;21;
30342;PMS5003;17145;49.902;8.680;2023-05-02T09:21:04;26;24;
30342;PMS5003;17145;49.902;8.680;2023-05-02T09:23:33;25;25;
30342;PMS5003;17145;49.902;8.680;2023-05-02T09:28:37;22;22;
30342;PMS5003;17145;49.902;8.680;2023-05-02T09:31:07;26;25;
30342;PMS5003;17145;49.902;8.680;2023-05-02T09:33:36;25;23;
30342;PMS5003;17145;49.902;8.680;2023-05-02T09:36:04;20;20;
30342;PMS5003;17145;49.902;8.680;2023-05-02T09:38:32;29;25;
30342;PMS5003;17145;49.902;8.680;2023-05-02T09:41:00;20;19;
30342;PMS5003;17145;49.902;8.680;2023-05-02T09:43:27;24;24;
30342;PMS5003;17145;49.902;8.680;2023-05-02T09:45:55;22;20;
30342;PMS5003;17145;49.902;8.680;2023-05-02T09:48:25;21;20;
30342;PMS5003;17145;49.902;8.680;2023-05-02T09:50:53;25;25;
30342;PMS5003;17145;49.902;8.680;2023-05-02T09:53:21;26;24;
30342;PMS5003;17145;49.902;8.680;2023-05-02T09:55:58;29;29;
30342;PMS5003;17145;49.902;8.680;2023-05-02T09:58:27;55;53;
30342;PMS5003;17145;49.902;8.680;2023-05-02T10:00:55;35;27;
30342;PMS5003;17145;49.902;8.680;2023-05-02T10:03:24;28;24;
30342;PMS5003;17145;49.902;8.680;2023-05-02T10:05:53;24;22;
30342;PMS5003;17145;49.902;8.680;2023-05-02T10:08:21;26;26;
30342;PMS5003;17145;49.902;8.680;2023-05-02T10:10:52;25;25;
30342;PMS5003;17145;49.902;8.680;2023-05-02T10:13:21;30;29;
30342;PMS5003;17145;49.902;8.680;2023-05-02T10:15:52;30;24;
30342;PMS5003;17145;49.902;8.680;2023-05-02T10:18:26;28;27;
30342;PMS5003;17145;49.902;8.680;2023-05-02T10:20:56;35;25;
30342;PMS5003;17145;49.902;8.680;2023-05-02T10:23:25;38;38;
30342;PMS5003;17145;49.902;8.680;2023-05-02T10:25:53;47;47;
30342;PMS5003;17145;49.902;8.680;2023-05-02T10:28:21;57;56;
30342;PMS5003;17145;49.902;8.680;2023-05-02T10:30:49;36;36;
30342;PMS5003;17145;49.902;8.680;2023-05-02T10:33:17;33;32;
30342;PMS5003;17145;49.902;8.680;2023-05-02T10:35:47;22;21;
30342;PMS5003;17145;49.902;8.680;2023-05-02T10:38:15;19;19;
30342;PMS5003;17145;49.902;8.680;2023-05-02T10:40:47;19;19;
30342;PMS5003;17145;49.902;8.680;2023-05-02T10:43:18;21;20;
30342;PMS5003;17145;49.902;8.680;2023-05-02T10:45:46;27;22;
30342;PMS5003;17145;49.902;8.680;2023-05-02T10:48:15;28;22;
30342;PMS5003;17145;49.902;8.680;2023-05-02T10:50:45;32;31;
30342;PMS5003;17145;49.902;8.680;2023-05-02T10:58:39;31;31;
30342;PMS5003;17145;49.902;8.680;2023-05-02T11:03:54;34;33;
30342;PMS5003;17145;49.902;8.680;2023-05-02T11:06:23;34;25;
30342;PMS5003;17145;49.902;8.680;2023-05-02T11:08:52;36;34;
30342;PMS5003;17145;49.902;8.680;2023-05-02T11:14:06;21;20;
30342;PMS5003;17145;49.902;8.680;2023-05-02T11:19:16;22;21;
30342;PMS5003;17145;49.902;8.680;2023-05-02T11:21:43;22;20;
30342;PMS5003;17145;49.902;8.680;2023-05-02T11:32:17;27;26;
30342;PMS5003;17145;49.902;8.680;2023-05-02T11:34:45;42;40;
30342;PMS5003;17145;49.902;8.680;2023-05-02T11:37:13;21;21;
30342;PMS5003;17145;49.902;8.680;2023-05-02T11:39:41;26;24;
30342;PMS5003;17145;49.902;8.680;2023-05-02T11:42:08;23;22;
30342;PMS5003;17145;49.902;8.680;2023-05-02T11:47:17;22;21;
30342;PMS5003;17145;49.902;8.680;2023-05-02T11:49:46;22;22;
30342;PMS5003;17145;49.902;8.680;2023-05-02T11:52:13;39;34;
30342;PMS5003;17145;49.902;8.680;2023-05-02T11:54:41;36;24;
30342;PMS5003;17145;49.902;8.680;2023-05-02T11:57:09;24;23;
30342;PMS5003;17145;49.902;8.680;2023-05-02T12:02:15;24;24;
30342;PMS5003;17145;49.902;8.680;2023-05-02T12:04:42;27;26;
30342;PMS5003;17145;49.902;8.680;2023-05-02T12:07:10;26;24;
30342;PMS5003;17145;49.902;8.680;2023-05-02T12:12:18;24;24;
30342;PMS5003;17145;49.902;8.680;2023-05-02T12:14:46;28;26;
30342;PMS5003;17145;49.902;8.680;2023-05-02T12:17:13;25;25;
30342;PMS5003;17145;49.902;8.680;2023-05-02T12:19:41;26;26;
30342;PMS5003;17145;49.902;8.680;2023-05-02T12:22:09;26;24;
30342;PMS5003;17145;49.902;8.680;2023-05-02T12:24:37;25;25;
30342;PMS5003;17145;49.902;8.680;2023-05-02T12:27:09;23;22;
30342;PMS5003;17145;49.902;8.680;2023-05-02T12:29:38;28;27;
30342;PMS5003;17145;49.902;8.680;2023-05-02T12:32:06;34;25;
30342;PMS5003;17145;49.902;8.680;2023-05-02T12:34:33;27;26;
30342;PMS5003;17145;49.902;8.680;2023-05-02T12:37:02;28;28;
30342;PMS5003;17145;49.902;8.680;2023-05-02T12:39:34;24;24;
30342;PMS5003;17145;49.902;8.680;2023-05-02T12:42:08;30;29;
30342;PMS5003;17145;49.902;8.680;2023-05-02T12:44:36;29;28;
30342;PMS5003;17145;49.902;8.680;2023-05-02T12:47:04;27;26;
30342;PMS5003;17145;49.902;8.680;2023-05-02T12:49:31;26;23;
30342;PMS5003;17145;49.902;8.680;2023-05-02T12:51:59;37;31;
30342;PMS5003;17145;49.902;8.680;2023-05-02T12:54:26;26;26;
30342;PMS5003;17145;49.902;8.680;2023-05-02T12:56:54;29;29;
30342;PMS5003;17145;49.902;8.680;2023-05-02T12:59:24;30;27;
30342;PMS5003;17145;49.902;8.680;2023-05-02T13:01:53;27;27;
30342;PMS5003;17145;49.902;8.680;2023-05-02T13:04:20;29;27;
30342;PMS5003;17145;49.902;8.680;2023-05-02T13:06:48;26;25;
30342;PMS5003;17145;49.902;8.680;2023-05-02T13:09:15;28;27;
30342;PMS5003;17145;49.902;8.680;2023-05-02T13:11:43;28;27;
30342;PMS5003;17145;49.902;8.680;2023-05-02T13:14:10;29;28;
30342;PMS5003;17145;49.902;8.680;2023-05-02T13:16:37;35;29;
30342;PMS5003;17145;49.902;8.680;2023-05-02T13:19:05;36;30;
30342;PMS5003;17145;49.902;8.680;2023-05-02T13:21:32;31;29;
30342;PMS5003;17145;49.902;8.680;2023-05-02T13:23:59;34;30;
30342;PMS5003;17145;49.902;8.680;2023-05-02T13:26:27;27;26;
30342;PMS5003;17145;49.902;8.680;2023-05-02T13:28:54;36;33;
30342;PMS5003;17145;49.902;8.680;2023-05-02T13:31:21;30;28;
30342;PMS5003;17145;49.902;8.680;2023-05-02T13:33:49;28;27;
30342;PMS5003;17145;49.902;8.680;2023-05-02T13:36:16;36;28;
30342;PMS5003;17145;49.902;8.680;2023-05-02T13:38:44;28;26;
30342;PMS5003;17145;49.902;8.680;2023-05-02T13:41:11;30;26;
30342;PMS5003;17145;49.902;8.680;2023-05-02T13:43:39;28;25;
30342;PMS5003;17145;49.902;8.680;2023-05-02T13:46:07;28;26;
30342;PMS5003;17145;49.902;8.680;2023-05-02T13:48:34;29;29;
30342;PMS5003;17145;49.902;8.680;2023-05-02T13:51:01;34;27;
30342;PMS5003;17145;49.902;8.680;2023-05-02T13:53:29;40;29;
30342;PMS5003;17145;49.902;8.680;2023-05-02T13:55:56;36;30;
30342;PMS5003;17145;49.902;8.680;2023-05-02T13:58:24;28;28;
30342;PMS5003;17145;49.902;8.680;2023-05-02T14:00:51;37;29;
30342;PMS5003;17145;49.902;8.680;2023-05-02T14:03:19;28;28;
30342;PMS5003;17145;49.902;8.680;2023-05-02T14:05:46;39;31;
30342;PMS5003;17145;49.902;8.680;2023-05-02T14:08:13;35;29;
30342;PMS5003;17145;49.902;8.680;2023-05-02T14:10:41;40;34;
30342;PMS5003;17145;49.902;8.680;2023-05-02T14:13:08;37;30;
30342;PMS5003;17145;49.902;8.680;2023-05-02T14:15:36;29;29;
30342;PMS5003;17145;49.902;8.680;2023-05-02T14:18:03;33;30;
30342;PMS5003;17145;49.902;8.680;2023-05-02T14:20:31;41;29;
30342;PMS5003;17145;49.902;8.680;2023-05-02T14:22:58;28;28;
30342;PMS5003;17145;49.902;8.680;2023-05-02T14:25:25;31;30;
30342;PMS5003;17145;49.902;8.680;2023-05-02T14:27:53;29;29;
30342;PMS5003;17145;49.902;8.680;2023-05-02T14:30:20;27;27;
30342;PMS5003;17145;49.902;8.680;2023-05-02T14:32:47;29;28;
30342;PMS5003;17145;49.902;8.680;2023-05-02T14:35:15;30;27;
30342;PMS5003;17145;49.902;8.680;2023-05-02T14:37:42;31;29;
30342;PMS5003;17145;49.902;8.680;2023-05-02T14:40:10;33;33;
30342;PMS5003;17145;49.902;8.680;2023-05-02T14:42:38;42;34;
30342;PMS5003;17145;49.902;8.680;2023-05-02T14:45:06;42;34;
30342;PMS5003;17145;49.902;8.680;2023-05-02T14:47:35;37;34;
30342;PMS5003;17145;49.902;8.680;2023-05-02T14:50:02;38;32;
30342;PMS5003;17145;49.902;8.680;2023-05-02T14:52:30;36;34;
30342;PMS5003;17145;49.902;8.680;2023-05-02T14:54:58;35;33;
30342;PMS5003;17145;49.902;8.680;2023-05-02T14:57:26;35;34;
30342;PMS5003;17145;49.902;8.680;2023-05-02T14:59:53;37;31;
30342;PMS5003;17145;49.902;8.680;2023-05-02T15:02:20;38;33;
30342;PMS5003;17145;49.902;8.680;2023-05-02T15:04:48;46;33;
30342;PMS5003;17145;49.902;8.680;2023-05-02T15:07:15;30;29;
30342;PMS5003;17145;49.902;8.680;2023-05-02T15:09:42;34;34;
30342;PMS5003;17145;49.902;8.680;2023-05-02T15:12:10;36;31;
30342;PMS5003;17145;49.902;8.680;2023-05-02T15:14:38;36;33;
30342;PMS5003;17145;49.902;8.680;2023-05-02T15:17:05;33;32;
30342;PMS5003;17145;49.902;8.680;2023-05-02T15:19:33;30;29;
30342;PMS5003;17145;49.902;8.680;2023-05-02T15:22:00;36;34;
30342;PMS5003;17145;49.902;8.680;2023-05-02T15:24:28;30;30;
30342;PMS5003;17145;49.902;8.680;2023-05-02T15:26:55;41;33;
30342;PMS5003;17145;49.902;8.680;2023-05-02T15:29:22;33;33;
30342;PMS5003;17145;49.902;8.680;2023-05-02T15:31:50;32;29;
30342;PMS5003;17145;49.902;8.680;2023-05-02T15:34:17;40;35;
30342;PMS5003;17145;49.902;8.680;2023-05-02T15:36:45;41;34;
30342;PMS5003;17145;49.902;8.680;2023-05-02T15:39:12;35;30;
30342;PMS5003;17145;49.902;8.680;2023-05-02T15:41:40;49;41;
30342;PMS5003;17145;49.902;8.680;2023-05-02T15:44:07;47;38;
30342;PMS5003;17145;49.902;8.680;2023-05-02T15:46:35;39;37;
30342;PMS5003;17145;49.902;8.680;2023-05-02T15:49:02;35;35;
30342;PMS5003;17145;49.902;8.680;2023-05-02T15:51:29;41;39;
30342;PMS5003;17145;49.902;8.680;2023-05-02T15:53:57;34;32;
30342;PMS5003;17145;49.902;8.680;2023-05-02T15:56:24;37;37;
30342;PMS5003;17145;49.902;8.680;2023-05-02T15:58:52;37;34;
30342;PMS5003;17145;49.902;8.680;2023-05-02T16:01:19;40;34;
30342;PMS5003;17145;49.902;8.680;2023-05-02T16:03:47;45;38;
30342;PMS5003;17145;49.902;8.680;2023-05-02T16:06:14;35;34;
30342;PMS5003;17145;49.902;8.680;2023-05-02T16:08:41;39;36;
30342;PMS5003;17145;49.902;8.680;2023-05-02T16:11:09;37;33;
30342;PMS5003;17145;49.902;8.680;2023-05-02T16:13:37;44;35;
30342;PMS5003;17145;49.902;8.680;2023-05-02T16:16:04;41;35;
30342;PMS5003;17145;49.902;8.680;2023-05-02T16:18:32;34;32;
30342;PMS5003;17145;49.902;8.680;2023-05-02T16:20:59;35;34;
30342;PMS5003;17145;49.902;8.680;2023-05-02T16:23:26;44;36;
30342;PMS5003;17145;49.902;8.680;2023-05-02T16:25:55;41;34;
30342;PMS5003;17145;49.902;8.680;2023-05-02T16:28:23;46;40;
30342;PMS5003;17145;49.902;8.680;2023-05-02T16:30:50;51;36;
30342;PMS5003;17145;49.902;8.680;2023-05-02T16:33:18;35;34;
30342;PMS5003;17145;49.902;8.680;2023-05-02T16:35:46;41;38;
30342;PMS5003;17145;49.902;8.680;2023-05-02T16:38:13;35;33;
30342;PMS5003;17145;49.902;8.680;2023-05-02T16:40:41;53;41;
30342;PMS5003;17145;49.902;8.680;2023-05-02T16:43:08;42;38;
30342;PMS5003;17145;49.902;8.680;2023-05-02T16:45:36;42;40;
30342;PMS5003;17145;49.902;8.680;2023-05-02T16:48:03;32;32;
30342;PMS5003;17145;49.902;8.680;2023-05-02T16:50:31;38;33;
30342;PMS5003;17145;49.902;8.680;2023-05-02T16:52:58;40;39;
30342;PMS5003;17145;49.902;8.680;2023-05-02T16:55:26;47;35;
30342;PMS5003;17145;49.902;8.680;2023-05-02T16:57:53;40;40;
30342;PMS5003;17145;49.902;8.680;2023-05-02T17:00:21;39;35;
30342;PMS5003;17145;49.902;8.680;2023-05-02T17:02:48;38;33;
30342;PMS5003;17145;49.902;8.680;2023-05-02T17:05:16;42;37;